PGUA/UAM METAR and TAF weather

Enter ICAO airport designator
Station Type Date Time Source
PGUA METAR 2020/03/28 08:56 UTC NOAA

PGUA 280856Z 09016KT 10SM SCT005 BKN012 26/23 A2987 RMK AO2A SLP105 P0002 60002 T02550228 52011 PWINO TSNO $


Station Type Date Time Source
PGUA Decoded METAR 2020/03/28 08:56 UTC NOAA

Andersen, Mariana Is, Andersen Air Force Base, GU, United States (PGUA) 13-35N 144-56E 187M
Mar 28, 2020 - 04:56 AM EDT / 2020.03.28 0856 UTC
Wind: from the E (090 degrees) at 18 MPH (16 KT):0
Visibility: 10 mile(s):0
Sky conditions: mostly cloudy
Precipitation last hour: 0.02 inches
Temperature: 77.9 F (25.5 C)
Dew Point: 73.0 F (22.8 C)
Relative Humidity: 85%
Pressure (altimeter): 29.87 in. Hg (1011 hPa)
Pressure tendency: 0.03 inches (1.1 hPa) higher than three hours ago
ob: PGUA 280856Z 09016KT 10SM SCT005 BKN012 26/23 A2987 RMK AO2A SLP105 P0002 60002 T02550228 52011 PWINO TSNO
cycle: 9

Station Type Date Time Source
PGUA TAF 2020/03/28 02:30 UTC NOAA

TAF PGUA 280200Z 2802/2908 07020KT 9999 BKN010 510042 QNH2985INS
BECMG 2821/2822 08020KT 9999 FEW012 510042 QNH2984INS TX29/2902Z TN25/2818Z

Example: see airport list